sensor_id;sensor_type;location;lat;lon;timestamp;temperature;humidity
3660;DHT22;1846;51.482;7.224;2023-04-06T00:00:48;4.00;99.90
3660;DHT22;1846;51.482;7.224;2023-04-06T00:03:15;4.00;99.90
3660;DHT22;1846;51.482;7.224;2023-04-06T00:05:42;3.90;99.90
3660;DHT22;1846;51.482;7.224;2023-04-06T00:08:10;3.90;99.90
3660;DHT22;1846;51.482;7.224;2023-04-06T00:10:37;3.80;99.90
3660;DHT22;1846;51.482;7.224;2023-04-06T00:13:05;3.80;99.90
3660;DHT22;1846;51.482;7.224;2023-04-06T00:15:33;3.70;99.90
3660;DHT22;1846;51.482;7.224;2023-04-06T00:18:00;3.70;99.90
3660;DHT22;1846;51.482;7.224;2023-04-06T00:20:27;3.80;99.90
3660;DHT22;1846;51.482;7.224;2023-04-06T00:22:53;3.80;99.90
3660;DHT22;1846;51.482;7.224;2023-04-06T00:25:22;3.80;99.90
3660;DHT22;1846;51.482;7.224;2023-04-06T00:27:49;3.70;99.90
3660;DHT22;1846;51.482;7.224;2023-04-06T00:30:16;3.80;99.90
3660;DHT22;1846;51.482;7.224;2023-04-06T00:32:43;3.80;99.90
3660;DHT22;1846;51.482;7.224;2023-04-06T00:35:10;3.90;99.90
3660;DHT22;1846;51.482;7.224;2023-04-06T00:37:37;3.80;99.90
3660;DHT22;1846;51.482;7.224;2023-04-06T00:40:05;3.80;99.90
3660;DHT22;1846;51.482;7.224;2023-04-06T00:42:33;3.70;99.90
3660;DHT22;1846;51.482;7.224;2023-04-06T00:45:01;3.60;99.90
3660;DHT22;1846;51.482;7.224;2023-04-06T00:47:28;3.50;99.90
3660;DHT22;1846;51.482;7.224;2023-04-06T00:49:56;3.50;99.90
3660;DHT22;1846;51.482;7.224;2023-04-06T00:52:23;3.50;99.90
3660;DHT22;1846;51.482;7.224;2023-04-06T00:54:51;3.40;99.90
3660;DHT22;1846;51.482;7.224;2023-04-06T00:57:18;3.40;99.90
3660;DHT22;1846;51.482;7.224;2023-04-06T00:59:47;3.30;99.90
3660;DHT22;1846;51.482;7.224;2023-04-06T01:02:14;3.30;99.90
3660;DHT22;1846;51.482;7.224;2023-04-06T01:04:41;3.20;99.90
3660;DHT22;1846;51.482;7.224;2023-04-06T01:07:08;3.20;99.90
3660;DHT22;1846;51.482;7.224;2023-04-06T01:09:35;3.10;99.90
3660;DHT22;1846;51.482;7.224;2023-04-06T01:12:02;3.20;99.90
3660;DHT22;1846;51.482;7.224;2023-04-06T01:14:29;3.20;99.90
3660;DHT22;1846;51.482;7.224;2023-04-06T01:17:00;3.20;99.90
3660;DHT22;1846;51.482;7.224;2023-04-06T01:19:27;3.20;99.90
3660;DHT22;1846;51.482;7.224;2023-04-06T01:21:55;3.30;99.90
3660;DHT22;1846;51.482;7.224;2023-04-06T01:24:23;3.30;99.90
3660;DHT22;1846;51.482;7.224;2023-04-06T01:26:50;3.30;99.90
3660;DHT22;1846;51.482;7.224;2023-04-06T01:29:17;3.30;99.90
3660;DHT22;1846;51.482;7.224;2023-04-06T01:31:44;3.30;99.90
3660;DHT22;1846;51.482;7.224;2023-04-06T01:34:11;3.30;99.90
3660;DHT22;1846;51.482;7.224;2023-04-06T01:36:38;3.20;99.90
3660;DHT22;1846;51.482;7.224;2023-04-06T01:39:05;3.30;99.90
3660;DHT22;1846;51.482;7.224;2023-04-06T01:41:33;3.20;99.90
3660;DHT22;1846;51.482;7.224;2023-04-06T01:44:00;3.20;99.90
3660;DHT22;1846;51.482;7.224;2023-04-06T01:46:27;3.20;99.90
3660;DHT22;1846;51.482;7.224;2023-04-06T01:48:54;3.20;99.90
3660;DHT22;1846;51.482;7.224;2023-04-06T01:51:21;3.20;99.90
3660;DHT22;1846;51.482;7.224;2023-04-06T01:53:50;3.20;99.90
3660;DHT22;1846;51.482;7.224;2023-04-06T01:56:17;3.20;99.90
3660;DHT22;1846;51.482;7.224;2023-04-06T01:58:45;3.10;99.90
3660;DHT22;1846;51.482;7.224;2023-04-06T02:01:12;3.10;99.90
3660;DHT22;1846;51.482;7.224;2023-04-06T02:03:39;3.10;99.90
3660;DHT22;1846;51.482;7.224;2023-04-06T02:06:06;3.20;99.90
3660;DHT22;1846;51.482;7.224;2023-04-06T02:08:33;3.20;99.90
3660;DHT22;1846;51.482;7.224;2023-04-06T02:11:00;3.20;99.90
3660;DHT22;1846;51.482;7.224;2023-04-06T02:13:27;3.20;99.90
3660;DHT22;1846;51.482;7.224;2023-04-06T02:15:55;3.20;99.90
3660;DHT22;1846;51.482;7.224;2023-04-06T02:18:22;3.20;99.90
3660;DHT22;1846;51.482;7.224;2023-04-06T02:20:49;3.10;99.90
3660;DHT22;1846;51.482;7.224;2023-04-06T02:23:16;3.10;99.90
3660;DHT22;1846;51.482;7.224;2023-04-06T02:25:43;3.10;99.90
3660;DHT22;1846;51.482;7.224;2023-04-06T02:28:10;3.10;99.90
3660;DHT22;1846;51.482;7.224;2023-04-06T02:30:37;3.10;99.90
3660;DHT22;1846;51.482;7.224;2023-04-06T02:33:06;3.10;99.90
3660;DHT22;1846;51.482;7.224;2023-04-06T02:35:33;3.20;99.90
3660;DHT22;1846;51.482;7.224;2023-04-06T02:38:00;3.20;99.90
3660;DHT22;1846;51.482;7.224;2023-04-06T02:40:27;3.20;99.90
3660;DHT22;1846;51.482;7.224;2023-04-06T02:42:54;3.20;99.90
3660;DHT22;1846;51.482;7.224;2023-04-06T02:45:20;3.10;99.90
3660;DHT22;1846;51.482;7.224;2023-04-06T02:47:47;3.10;99.90
3660;DHT22;1846;51.482;7.224;2023-04-06T02:50:16;3.10;99.90
3660;DHT22;1846;51.482;7.224;2023-04-06T02:52:43;3.20;99.90
3660;DHT22;1846;51.482;7.224;2023-04-06T02:55:10;3.20;99.90
3660;DHT22;1846;51.482;7.224;2023-04-06T02:57:37;3.20;99.90
3660;DHT22;1846;51.482;7.224;2023-04-06T03:00:04;3.30;99.90
3660;DHT22;1846;51.482;7.224;2023-04-06T03:02:32;3.20;99.90
3660;DHT22;1846;51.482;7.224;2023-04-06T03:04:59;3.20;99.90
3660;DHT22;1846;51.482;7.224;2023-04-06T03:07:27;3.20;99.90
3660;DHT22;1846;51.482;7.224;2023-04-06T03:09:54;3.20;99.90
3660;DHT22;1846;51.482;7.224;2023-04-06T03:12:21;3.20;99.90
3660;DHT22;1846;51.482;7.224;2023-04-06T03:14:48;3.20;99.90
3660;DHT22;1846;51.482;7.224;2023-04-06T03:17:15;3.20;99.90
3660;DHT22;1846;51.482;7.224;2023-04-06T03:19:42;3.20;99.90
3660;DHT22;1846;51.482;7.224;2023-04-06T03:22:09;3.10;99.90
3660;DHT22;1846;51.482;7.224;2023-04-06T03:24:37;3.10;99.90
3660;DHT22;1846;51.482;7.224;2023-04-06T03:27:04;3.10;99.90
3660;DHT22;1846;51.482;7.224;2023-04-06T03:29:31;3.10;99.90
3660;DHT22;1846;51.482;7.224;2023-04-06T03:31:58;3.00;99.90
3660;DHT22;1846;51.482;7.224;2023-04-06T03:34:25;2.90;99.90
3660;DHT22;1846;51.482;7.224;2023-04-06T03:36:52;3.00;99.90
3660;DHT22;1846;51.482;7.224;2023-04-06T03:39:19;2.90;99.90
3660;DHT22;1846;51.482;7.224;2023-04-06T03:41:47;2.90;99.90
3660;DHT22;1846;51.482;7.224;2023-04-06T03:44:14;2.90;99.90
3660;DHT22;1846;51.482;7.224;2023-04-06T03:46:42;2.80;99.90
3660;DHT22;1846;51.482;7.224;2023-04-06T03:49:09;2.80;99.90
3660;DHT22;1846;51.482;7.224;2023-04-06T03:51:36;2.80;99.90
3660;DHT22;1846;51.482;7.224;2023-04-06T03:54:03;2.70;99.90
3660;DHT22;1846;51.482;7.224;2023-04-06T03:56:30;2.70;99.90
3660;DHT22;1846;51.482;7.224;2023-04-06T03:58:59;2.70;99.90
3660;DHT22;1846;51.482;7.224;2023-04-06T04:01:27;2.60;99.90
3660;DHT22;1846;51.482;7.224;2023-04-06T04:03:54;2.70;99.90
3660;DHT22;1846;51.482;7.224;2023-04-06T04:06:21;2.60;99.90
3660;DHT22;1846;51.482;7.224;2023-04-06T04:08:48;2.60;99.90
3660;DHT22;1846;51.482;7.224;2023-04-06T04:11:15;2.60;99.90
3660;DHT22;1846;51.482;7.224;2023-04-06T04:13:42;2.60;99.90
3660;DHT22;1846;51.482;7.224;2023-04-06T04:16:11;2.60;99.90
3660;DHT22;1846;51.482;7.224;2023-04-06T04:18:37;2.60;99.90
3660;DHT22;1846;51.482;7.224;2023-04-06T04:21:04;2.50;99.90
3660;DHT22;1846;51.482;7.224;2023-04-06T04:23:31;2.50;99.90
3660;DHT22;1846;51.482;7.224;2023-04-06T04:25:58;2.50;1.00
3660;DHT22;1846;51.482;7.224;2023-04-06T04:28:25;2.50;99.90
3660;DHT22;1846;51.482;7.224;2023-04-06T04:30:52;2.50;99.90
3660;DHT22;1846;51.482;7.224;2023-04-06T04:33:20;2.60;99.90
3660;DHT22;1846;51.482;7.224;2023-04-06T04:35:47;2.50;1.00
3660;DHT22;1846;51.482;7.224;2023-04-06T04:38:14;2.50;1.00
3660;DHT22;1846;51.482;7.224;2023-04-06T04:40:41;2.40;1.00
3660;DHT22;1846;51.482;7.224;2023-04-06T04:43:08;2.40;1.00
3660;DHT22;1846;51.482;7.224;2023-04-06T04:45:35;2.50;1.00
3660;DHT22;1846;51.482;7.224;2023-04-06T04:48:02;2.60;99.90
3660;DHT22;1846;51.482;7.224;2023-04-06T04:50:31;2.60;99.90
3660;DHT22;1846;51.482;7.224;2023-04-06T04:52:58;2.50;99.90
3660;DHT22;1846;51.482;7.224;2023-04-06T04:55:25;2.50;1.00
3660;DHT22;1846;51.482;7.224;2023-04-06T04:57:52;2.50;1.00
3660;DHT22;1846;51.482;7.224;2023-04-06T05:00:20;2.50;1.00
3660;DHT22;1846;51.482;7.224;2023-04-06T05:02:47;2.40;1.00
3660;DHT22;1846;51.482;7.224;2023-04-06T05:05:14;2.40;1.00
3660;DHT22;1846;51.482;7.224;2023-04-06T05:07:42;2.40;1.00
3660;DHT22;1846;51.482;7.224;2023-04-06T05:10:09;2.40;1.00
3660;DHT22;1846;51.482;7.224;2023-04-06T05:12:37;2.50;99.90
3660;DHT22;1846;51.482;7.224;2023-04-06T05:15:05;2.50;1.00
3660;DHT22;1846;51.482;7.224;2023-04-06T05:17:32;2.50;99.90
3660;DHT22;1846;51.482;7.224;2023-04-06T05:20:00;2.60;99.90
3660;DHT22;1846;51.482;7.224;2023-04-06T05:22:27;2.60;99.90
3660;DHT22;1846;51.482;7.224;2023-04-06T05:24:56;2.60;99.90
3660;DHT22;1846;51.482;7.224;2023-04-06T05:27:23;2.60;99.90
3660;DHT22;1846;51.482;7.224;2023-04-06T05:29:50;2.60;99.90
3660;DHT22;1846;51.482;7.224;2023-04-06T05:32:17;2.70;99.90
3660;DHT22;1846;51.482;7.224;2023-04-06T05:34:47;2.70;99.90
3660;DHT22;1846;51.482;7.224;2023-04-06T05:37:14;2.80;99.90
3660;DHT22;1846;51.482;7.224;2023-04-06T05:39:41;2.80;99.90
3660;DHT22;1846;51.482;7.224;2023-04-06T05:42:10;2.90;99.90
3660;DHT22;1846;51.482;7.224;2023-04-06T05:44:37;2.90;99.90
3660;DHT22;1846;51.482;7.224;2023-04-06T05:47:04;3.00;99.90
3660;DHT22;1846;51.482;7.224;2023-04-06T05:49:31;3.10;99.90
3660;DHT22;1846;51.482;7.224;2023-04-06T05:51:58;3.10;99.90
3660;DHT22;1846;51.482;7.224;2023-04-06T05:54:25;3.10;99.90
3660;DHT22;1846;51.482;7.224;2023-04-06T05:56:52;3.20;99.90
3660;DHT22;1846;51.482;7.224;2023-04-06T05:59:20;3.50;99.90
3660;DHT22;1846;51.482;7.224;2023-04-06T06:01:47;3.80;99.90
3660;DHT22;1846;51.482;7.224;2023-04-06T06:04:14;4.10;99.90
3660;DHT22;1846;51.482;7.224;2023-04-06T06:06:41;4.30;92.20
3660;DHT22;1846;51.482;7.224;2023-04-06T06:09:08;4.50;81.60
3660;DHT22;1846;51.482;7.224;2023-04-06T06:11:35;4.70;67.20
3660;DHT22;1846;51.482;7.224;2023-04-06T06:14:02;4.80;59.50
3660;DHT22;1846;51.482;7.224;2023-04-06T06:16:31;4.90;54.00
3660;DHT22;1846;51.482;7.224;2023-04-06T06:18:58;5.10;50.90
3660;DHT22;1846;51.482;7.224;2023-04-06T06:21:25;5.30;40.40
3660;DHT22;1846;51.482;7.224;2023-04-06T06:23:52;5.40;36.40
3660;DHT22;1846;51.482;7.224;2023-04-06T06:26:20;5.50;33.20
3660;DHT22;1846;51.482;7.224;2023-04-06T06:28:47;5.60;31.10
3660;DHT22;1846;51.482;7.224;2023-04-06T06:31:14;5.70;29.50
3660;DHT22;1846;51.482;7.224;2023-04-06T06:33:43;5.70;28.30
3660;DHT22;1846;51.482;7.224;2023-04-06T06:36:09;5.90;28.00
3660;DHT22;1846;51.482;7.224;2023-04-06T06:38:36;6.00;27.10
3660;DHT22;1846;51.482;7.224;2023-04-06T06:41:04;6.10;25.10
3660;DHT22;1846;51.482;7.224;2023-04-06T06:43:31;6.10;23.90
3660;DHT22;1846;51.482;7.224;2023-04-06T06:45:58;6.20;21.90
3660;DHT22;1846;51.482;7.224;2023-04-06T06:48:25;6.30;21.70
3660;DHT22;1846;51.482;7.224;2023-04-06T06:50:54;6.40;20.90
3660;DHT22;1846;51.482;7.224;2023-04-06T06:53:21;6.50;19.50
3660;DHT22;1846;51.482;7.224;2023-04-06T06:55:48;6.60;19.00
3660;DHT22;1846;51.482;7.224;2023-04-06T06:58:17;6.60;19.00
3660;DHT22;1846;51.482;7.224;2023-04-06T07:00:44;6.50;18.40
3660;DHT22;1846;51.482;7.224;2023-04-06T07:03:11;6.70;18.90
3660;DHT22;1846;51.482;7.224;2023-04-06T07:05:38;6.80;19.00
3660;DHT22;1846;51.482;7.224;2023-04-06T07:08:06;6.80;18.30
3660;DHT22;1846;51.482;7.224;2023-04-06T07:10:33;6.90;17.70
3660;DHT22;1846;51.482;7.224;2023-04-06T07:13:00;7.10;18.10
3660;DHT22;1846;51.482;7.224;2023-04-06T07:15:27;7.20;18.70
3660;DHT22;1846;51.482;7.224;2023-04-06T07:17:55;7.30;18.30
3660;DHT22;1846;51.482;7.224;2023-04-06T07:20:22;7.40;17.60
3660;DHT22;1846;51.482;7.224;2023-04-06T07:22:49;7.40;17.90
3660;DHT22;1846;51.482;7.224;2023-04-06T07:25:17;7.60;16.70
3660;DHT22;1846;51.482;7.224;2023-04-06T07:27:44;7.60;15.80
3660;DHT22;1846;51.482;7.224;2023-04-06T07:30:12;7.70;16.00
3660;DHT22;1846;51.482;7.224;2023-04-06T07:32:38;7.60;15.70
3660;DHT22;1846;51.482;7.224;2023-04-06T07:35:06;7.50;15.30
3660;DHT22;1846;51.482;7.224;2023-04-06T07:37:33;7.70;16.50
3660;DHT22;1846;51.482;7.224;2023-04-06T07:40:00;7.90;16.80
3660;DHT22;1846;51.482;7.224;2023-04-06T07:42:29;7.90;16.50
3660;DHT22;1846;51.482;7.224;2023-04-06T07:44:56;7.90;17.40
3660;DHT22;1846;51.482;7.224;2023-04-06T07:47:23;7.90;17.30
3660;DHT22;1846;51.482;7.224;2023-04-06T07:49:50;8.00;17.10
3660;DHT22;1846;51.482;7.224;2023-04-06T07:52:17;8.20;17.40
3660;DHT22;1846;51.482;7.224;2023-04-06T07:54:44;8.30;17.40
3660;DHT22;1846;51.482;7.224;2023-04-06T07:57:11;8.50;17.60
3660;DHT22;1846;51.482;7.224;2023-04-06T07:59:58;8.60;17.90
3660;DHT22;1846;51.482;7.224;2023-04-06T08:02:26;8.80;16.80
3660;DHT22;1846;51.482;7.224;2023-04-06T08:04:53;8.90;16.90
3660;DHT22;1846;51.482;7.224;2023-04-06T08:07:20;8.90;16.60
3660;DHT22;1846;51.482;7.224;2023-04-06T08:09:47;9.10;16.00
3660;DHT22;1846;51.482;7.224;2023-04-06T08:12:14;9.10;16.10
3660;DHT22;1846;51.482;7.224;2023-04-06T08:14:41;9.10;16.00
3660;DHT22;1846;51.482;7.224;2023-04-06T08:17:09;9.20;16.00
3660;DHT22;1846;51.482;7.224;2023-04-06T08:19:36;9.30;16.10
3660;DHT22;1846;51.482;7.224;2023-04-06T08:22:03;9.40;16.20
3660;DHT22;1846;51.482;7.224;2023-04-06T08:24:30;9.60;17.30
3660;DHT22;1846;51.482;7.224;2023-04-06T08:26:57;9.70;18.20
3660;DHT22;1846;51.482;7.224;2023-04-06T08:29:24;9.80;18.50
3660;DHT22;1846;51.482;7.224;2023-04-06T08:31:51;10.10;18.40
3660;DHT22;1846;51.482;7.224;2023-04-06T08:34:20;10.20;17.70
3660;DHT22;1846;51.482;7.224;2023-04-06T08:36:48;10.30;18.60
3660;DHT22;1846;51.482;7.224;2023-04-06T08:39:15;10.50;18.20
3660;DHT22;1846;51.482;7.224;2023-04-06T08:41:42;10.70;18.40
3660;DHT22;1846;51.482;7.224;2023-04-06T08:44:09;10.90;19.60
3660;DHT22;1846;51.482;7.224;2023-04-06T08:46:37;11.20;19.80
3660;DHT22;1846;51.482;7.224;2023-04-06T08:49:04;11.40;20.40
3660;DHT22;1846;51.482;7.224;2023-04-06T08:51:36;11.80;20.60
3660;DHT22;1846;51.482;7.224;2023-04-06T08:54:03;11.80;20.10
3660;DHT22;1846;51.482;7.224;2023-04-06T08:56:30;12.00;21.20
3660;DHT22;1846;51.482;7.224;2023-04-06T08:58:58;12.30;22.00
3660;DHT22;1846;51.482;7.224;2023-04-06T09:01:27;12.40;21.20
3660;DHT22;1846;51.482;7.224;2023-04-06T09:03:56;12.50;21.40
3660;DHT22;1846;51.482;7.224;2023-04-06T09:06:24;12.50;20.50
3660;DHT22;1846;51.482;7.224;2023-04-06T09:08:53;12.60;20.30
3660;DHT22;1846;51.482;7.224;2023-04-06T09:11:21;12.60;19.90
3660;DHT22;1846;51.482;7.224;2023-04-06T09:13:49;12.60;19.80
3660;DHT22;1846;51.482;7.224;2023-04-06T09:16:17;12.70;20.10
3660;DHT22;1846;51.482;7.224;2023-04-06T09:18:44;12.80;20.20
3660;DHT22;1846;51.482;7.224;2023-04-06T09:21:11;12.90;20.40
3660;DHT22;1846;51.482;7.224;2023-04-06T09:23:39;13.00;20.90
3660;DHT22;1846;51.482;7.224;2023-04-06T09:26:09;12.90;19.80
3660;DHT22;1846;51.482;7.224;2023-04-06T09:28:48;12.70;19.00
3660;DHT22;1846;51.482;7.224;2023-04-06T09:31:20;12.80;18.90
3660;DHT22;1846;51.482;7.224;2023-04-06T09:33:47;12.80;18.50
3660;DHT22;1846;51.482;7.224;2023-04-06T09:36:14;12.90;18.40
3660;DHT22;1846;51.482;7.224;2023-04-06T09:38:52;12.80;17.60
3660;DHT22;1846;51.482;7.224;2023-04-06T09:41:25;12.90;18.20
3660;DHT22;1846;51.482;7.224;2023-04-06T09:44:01;13.10;19.40
3660;DHT22;1846;51.482;7.224;2023-04-06T09:46:31;13.30;19.80
3660;DHT22;1846;51.482;7.224;2023-04-06T09:49:00;13.50;20.90
3660;DHT22;1846;51.482;7.224;2023-04-06T09:51:30;13.60;20.90
3660;DHT22;1846;51.482;7.224;2023-04-06T09:53:59;13.40;19.70
3660;DHT22;1846;51.482;7.224;2023-04-06T09:56:34;13.50;20.20
3660;DHT22;1846;51.482;7.224;2023-04-06T09:59:08;13.60;20.90
3660;DHT22;1846;51.482;7.224;2023-04-06T10:01:39;13.70;21.30
3660;DHT22;1846;51.482;7.224;2023-04-06T10:04:25;14.20;23.90
3660;DHT22;1846;51.482;7.224;2023-04-06T10:06:55;14.80;26.70
3660;DHT22;1846;51.482;7.224;2023-04-06T10:09:26;15.50;31.30
3660;DHT22;1846;51.482;7.224;2023-04-06T10:12:03;15.80;31.80
3660;DHT22;1846;51.482;7.224;2023-04-06T10:14:31;15.80;30.60
3660;DHT22;1846;51.482;7.224;2023-04-06T10:16:58;15.80;30.00
3660;DHT22;1846;51.482;7.224;2023-04-06T10:19:34;15.50;28.10
3660;DHT22;1846;51.482;7.224;2023-04-06T10:22:05;15.30;27.00
3660;DHT22;1846;51.482;7.224;2023-04-06T10:24:33;15.10;25.80
3660;DHT22;1846;51.482;7.224;2023-04-06T10:27:03;15.50;27.90
3660;DHT22;1846;51.482;7.224;2023-04-06T10:29:42;15.70;29.00
3660;DHT22;1846;51.482;7.224;2023-04-06T10:32:10;15.80;28.70
3660;DHT22;1846;51.482;7.224;2023-04-06T10:34:37;15.90;28.70
3660;DHT22;1846;51.482;7.224;2023-04-06T10:37:12;16.10;29.80
3660;DHT22;1846;51.482;7.224;2023-04-06T10:39:46;16.10;29.60
3660;DHT22;1846;51.482;7.224;2023-04-06T10:42:15;16.30;30.10
3660;DHT22;1846;51.482;7.224;2023-04-06T10:44:45;16.20;29.70
3660;DHT22;1846;51.482;7.224;2023-04-06T10:47:18;16.50;30.60
3660;DHT22;1846;51.482;7.224;2023-04-06T10:49:45;16.30;29.70
3660;DHT22;1846;51.482;7.224;2023-04-06T10:52:12;16.10;27.60
3660;DHT22;1846;51.482;7.224;2023-04-06T10:54:42;16.10;28.40
3660;DHT22;1846;51.482;7.224;2023-04-06T10:57:09;16.20;28.40
3660;DHT22;1846;51.482;7.224;2023-04-06T10:59:42;16.50;30.30
3660;DHT22;1846;51.482;7.224;2023-04-06T11:02:09;17.00;33.40
3660;DHT22;1846;51.482;7.224;2023-04-06T11:04:54;17.30;36.20
3660;DHT22;1846;51.482;7.224;2023-04-06T11:07:23;17.60;36.90
3660;DHT22;1846;51.482;7.224;2023-04-06T11:09:50;17.30;43.90
3660;DHT22;1846;51.482;7.224;2023-04-06T11:12:21;16.80;30.30
3660;DHT22;1846;51.482;7.224;2023-04-06T11:15:00;16.70;30.10
3660;DHT22;1846;51.482;7.224;2023-04-06T11:17:30;17.10;33.80
3660;DHT22;1846;51.482;7.224;2023-04-06T11:19:57;17.50;35.00
3660;DHT22;1846;51.482;7.224;2023-04-06T11:22:25;18.00;38.30
3660;DHT22;1846;51.482;7.224;2023-04-06T11:24:52;18.50;41.70
3660;DHT22;1846;51.482;7.224;2023-04-06T11:27:19;18.70;42.70
3660;DHT22;1846;51.482;7.224;2023-04-06T11:29:47;19.10;45.70
3660;DHT22;1846;51.482;7.224;2023-04-06T11:32:21;19.50;47.70
3660;DHT22;1846;51.482;7.224;2023-04-06T11:34:50;19.80;48.30
3660;DHT22;1846;51.482;7.224;2023-04-06T11:37:17;19.50;47.70
3660;DHT22;1846;51.482;7.224;2023-04-06T11:39:47;19.70;48.10
3660;DHT22;1846;51.482;7.224;2023-04-06T11:42:21;19.30;44.20
3660;DHT22;1846;51.482;7.224;2023-04-06T11:44:50;18.70;39.30
3660;DHT22;1846;51.482;7.224;2023-04-06T11:47:19;18.40;36.70
3660;DHT22;1846;51.482;7.224;2023-04-06T11:49:49;17.80;33.30
3660;DHT22;1846;51.482;7.224;2023-04-06T11:52:17;17.70;31.90
3660;DHT22;1846;51.482;7.224;2023-04-06T11:54:45;17.40;29.50
3660;DHT22;1846;51.482;7.224;2023-04-06T11:57:12;17.40;30.30
3660;DHT22;1846;51.482;7.224;2023-04-06T11:59:39;17.20;28.70
3660;DHT22;1846;51.482;7.224;2023-04-06T12:02:06;17.00;27.50
3660;DHT22;1846;51.482;7.224;2023-04-06T12:04:33;17.00;27.40
3660;DHT22;1846;51.482;7.224;2023-04-06T12:07:02;16.90;26.80
3660;DHT22;1846;51.482;7.224;2023-04-06T12:09:29;16.70;26.00
3660;DHT22;1846;51.482;7.224;2023-04-06T12:11:56;16.50;25.00
3660;DHT22;1846;51.482;7.224;2023-04-06T12:14:23;16.40;32.30
3660;DHT22;1846;51.482;7.224;2023-04-06T12:16:50;16.30;24.00
3660;DHT22;1846;51.482;7.224;2023-04-06T12:19:17;16.40;24.70
3660;DHT22;1846;51.482;7.224;2023-04-06T12:21:44;16.40;24.40
3660;DHT22;1846;51.482;7.224;2023-04-06T12:24:12;16.20;24.00
3660;DHT22;1846;51.482;7.224;2023-04-06T12:26:39;16.20;23.90
3660;DHT22;1846;51.482;7.224;2023-04-06T12:29:06;16.20;24.20
3660;DHT22;1846;51.482;7.224;2023-04-06T12:31:35;16.20;23.60
3660;DHT22;1846;51.482;7.224;2023-04-06T12:34:04;16.20;24.20
3660;DHT22;1846;51.482;7.224;2023-04-06T12:36:31;16.20;24.10
3660;DHT22;1846;51.482;7.224;2023-04-06T12:38:58;16.10;23.80
3660;DHT22;1846;51.482;7.224;2023-04-06T12:41:27;16.20;24.30
3660;DHT22;1846;51.482;7.224;2023-04-06T12:43:54;16.20;24.30
3660;DHT22;1846;51.482;7.224;2023-04-06T12:46:21;16.20;24.40
3660;DHT22;1846;51.482;7.224;2023-04-06T12:48:48;16.20;24.60
3660;DHT22;1846;51.482;7.224;2023-04-06T12:51:15;16.40;25.30
3660;DHT22;1846;51.482;7.224;2023-04-06T12:53:42;16.30;24.50
3660;DHT22;1846;51.482;7.224;2023-04-06T12:56:14;16.10;22.90
3660;DHT22;1846;51.482;7.224;2023-04-06T12:58:44;15.70;20.90
3660;DHT22;1846;51.482;7.224;2023-04-06T13:01:11;15.50;20.10
3660;DHT22;1846;51.482;7.224;2023-04-06T13:03:39;15.50;19.50
3660;DHT22;1846;51.482;7.224;2023-04-06T13:06:06;15.10;19.20
3660;DHT22;1846;51.482;7.224;2023-04-06T13:08:35;15.20;19.40
3660;DHT22;1846;51.482;7.224;2023-04-06T13:11:03;15.10;19.80
3660;DHT22;1846;51.482;7.224;2023-04-06T13:13:31;15.30;28.10
3660;DHT22;1846;51.482;7.224;2023-04-06T13:16:01;15.10;19.30
3660;DHT22;1846;51.482;7.224;2023-04-06T13:18:29;14.90;18.50
3660;DHT22;1846;51.482;7.224;2023-04-06T13:20:57;14.70;18.00
3660;DHT22;1846;51.482;7.224;2023-04-06T13:23:25;14.70;17.60
3660;DHT22;1846;51.482;7.224;2023-04-06T13:25:57;14.70;18.70
3660;DHT22;1846;51.482;7.224;2023-04-06T13:28:25;14.70;18.90
3660;DHT22;1846;51.482;7.224;2023-04-06T13:30:53;14.80;19.90
3660;DHT22;1846;51.482;7.224;2023-04-06T13:33:21;14.80;20.40
3660;DHT22;1846;51.482;7.224;2023-04-06T13:35:48;14.80;20.90
3660;DHT22;1846;51.482;7.224;2023-04-06T13:38:16;14.70;20.10
3660;DHT22;1846;51.482;7.224;2023-04-06T13:40:43;14.60;20.40
3660;DHT22;1846;51.482;7.224;2023-04-06T13:43:10;14.50;19.50
3660;DHT22;1846;51.482;7.224;2023-04-06T13:45:37;14.50;20.10
3660;DHT22;1846;51.482;7.224;2023-04-06T13:48:05;14.40;19.50
3660;DHT22;1846;51.482;7.224;2023-04-06T13:50:33;14.30;19.80
3660;DHT22;1846;51.482;7.224;2023-04-06T13:53:00;14.50;21.20
3660;DHT22;1846;51.482;7.224;2023-04-06T13:55:27;14.40;21.50
3660;DHT22;1846;51.482;7.224;2023-04-06T13:57:55;14.50;22.40
3660;DHT22;1846;51.482;7.224;2023-04-06T14:00:22;14.60;23.30
3660;DHT22;1846;51.482;7.224;2023-04-06T14:02:49;14.50;22.80
3660;DHT22;1846;51.482;7.224;2023-04-06T14:05:16;14.40;23.00
3660;DHT22;1846;51.482;7.224;2023-04-06T14:07:45;14.20;22.70
3660;DHT22;1846;51.482;7.224;2023-04-06T14:10:11;14.10;23.20
3660;DHT22;1846;51.482;7.224;2023-04-06T14:12:41;14.00;23.00
3660;DHT22;1846;51.482;7.224;2023-04-06T14:15:09;14.00;23.00
3660;DHT22;1846;51.482;7.224;2023-04-06T14:17:36;14.10;22.50
3660;DHT22;1846;51.482;7.224;2023-04-06T14:20:04;14.10;22.70
3660;DHT22;1846;51.482;7.224;2023-04-06T14:22:31;14.10;23.40
3660;DHT22;1846;51.482;7.224;2023-04-06T14:24:59;14.20;23.90
3660;DHT22;1846;51.482;7.224;2023-04-06T14:27:26;14.10;23.40
3660;DHT22;1846;51.482;7.224;2023-04-06T14:29:54;14.10;22.30
3660;DHT22;1846;51.482;7.224;2023-04-06T14:32:21;14.00;21.90
3660;DHT22;1846;51.482;7.224;2023-04-06T14:34:48;13.90;23.10
3660;DHT22;1846;51.482;7.224;2023-04-06T14:37:15;14.00;25.20
3660;DHT22;1846;51.482;7.224;2023-04-06T14:39:43;13.90;28.20
3660;DHT22;1846;51.482;7.224;2023-04-06T14:42:11;13.70;31.70
3660;DHT22;1846;51.482;7.224;2023-04-06T14:44:38;13.50;37.50
3660;DHT22;1846;51.482;7.224;2023-04-06T14:47:08;13.30;40.70
3660;DHT22;1846;51.482;7.224;2023-04-06T14:49:35;13.40;44.10
3660;DHT22;1846;51.482;7.224;2023-04-06T14:52:02;13.30;38.70
3660;DHT22;1846;51.482;7.224;2023-04-06T14:54:29;13.10;48.00
3660;DHT22;1846;51.482;7.224;2023-04-06T14:56:56;13.20;40.70
3660;DHT22;1846;51.482;7.224;2023-04-06T14:59:24;13.10;42.00
3660;DHT22;1846;51.482;7.224;2023-04-06T15:01:51;13.00;41.40
3660;DHT22;1846;51.482;7.224;2023-04-06T15:04:17;13.00;45.80
3660;DHT22;1846;51.482;7.224;2023-04-06T15:06:44;13.10;45.50
3660;DHT22;1846;51.482;7.224;2023-04-06T15:09:11;13.00;44.20
3660;DHT22;1846;51.482;7.224;2023-04-06T15:11:38;12.90;50.80
3660;DHT22;1846;51.482;7.224;2023-04-06T15:14:06;13.00;53.60
3660;DHT22;1846;51.482;7.224;2023-04-06T15:16:34;12.80;58.90
3660;DHT22;1846;51.482;7.224;2023-04-06T15:19:01;12.80;69.00
3660;DHT22;1846;51.482;7.224;2023-04-06T15:21:28;12.70;67.50
3660;DHT22;1846;51.482;7.224;2023-04-06T15:23:55;12.50;72.80
3660;DHT22;1846;51.482;7.224;2023-04-06T15:26:22;12.60;80.40
3660;DHT22;1846;51.482;7.224;2023-04-06T15:28:49;12.60;84.70
3660;DHT22;1846;51.482;7.224;2023-04-06T15:31:17;12.60;84.60
3660;DHT22;1846;51.482;7.224;2023-04-06T15:33:47;12.50;90.10
3660;DHT22;1846;51.482;7.224;2023-04-06T15:36:22;12.40;96.00
3660;DHT22;1846;51.482;7.224;2023-04-06T15:38:50;12.30;98.50
3660;DHT22;1846;51.482;7.224;2023-04-06T15:41:16;12.30;99.90
3660;DHT22;1846;51.482;7.224;2023-04-06T15:43:43;12.40;98.30
3660;DHT22;1846;51.482;7.224;2023-04-06T15:46:10;12.40;94.90
3660;DHT22;1846;51.482;7.224;2023-04-06T15:48:37;12.40;84.90
3660;DHT22;1846;51.482;7.224;2023-04-06T15:51:06;12.50;86.30
3660;DHT22;1846;51.482;7.224;2023-04-06T15:53:33;12.40;82.70
3660;DHT22;1846;51.482;7.224;2023-04-06T15:56:00;12.40;90.70
3660;DHT22;1846;51.482;7.224;2023-04-06T15:58:28;12.50;87.00
3660;DHT22;1846;51.482;7.224;2023-04-06T16:00:56;12.20;84.70
3660;DHT22;1846;51.482;7.224;2023-04-06T16:03:23;12.20;85.40
3660;DHT22;1846;51.482;7.224;2023-04-06T16:05:51;12.30;82.20
3660;DHT22;1846;51.482;7.224;2023-04-06T16:08:20;12.30;74.40
3660;DHT22;1846;51.482;7.224;2023-04-06T16:10:46;12.20;86.10
3660;DHT22;1846;51.482;7.224;2023-04-06T16:13:14;12.30;90.60